sensor_id;sensor_type;location;lat;lon;timestamp;P1;durP1;ratioP1;P2;durP2;ratioP2
69280;SDS011;56392;51.082;17.080;2023-01-23T00:05:28;48.30;;;17.90;;
69280;SDS011;56392;51.082;17.080;2023-01-23T00:10:54;55.63;;;18.30;;
69280;SDS011;56392;51.082;17.080;2023-01-23T00:16:18;52.70;;;17.63;;
69280;SDS011;56392;51.082;17.080;2023-01-23T00:21:43;52.33;;;17.90;;
69280;SDS011;56392;51.082;17.080;2023-01-23T00:27:06;49.03;;;17.33;;
69280;SDS011;56392;51.082;17.080;2023-01-23T00:32:29;48.42;;;17.30;;
69280;SDS011;56392;51.082;17.080;2023-01-23T00:37:54;55.70;;;17.98;;
69280;SDS011;56392;51.082;17.080;2023-01-23T00:43:18;51.93;;;16.37;;
69280;SDS011;56392;51.082;17.080;2023-01-23T00:48:41;56.72;;;17.92;;
69280;SDS011;56392;51.082;17.080;2023-01-23T00:54:06;51.25;;;16.27;;
69280;SDS011;56392;51.082;17.080;2023-01-23T00:59:30;48.00;;;15.47;;
69280;SDS011;56392;51.082;17.080;2023-01-23T01:04:53;51.55;;;17.20;;
69280;SDS011;56392;51.082;17.080;2023-01-23T01:10:18;61.17;;;17.42;;
69280;SDS011;56392;51.082;17.080;2023-01-23T01:15:41;50.30;;;16.13;;
69280;SDS011;56392;51.082;17.080;2023-01-23T01:21:05;52.73;;;16.10;;
69280;SDS011;56392;51.082;17.080;2023-01-23T01:26:30;52.20;;;16.90;;
69280;SDS011;56392;51.082;17.080;2023-01-23T01:31:53;56.47;;;17.42;;
69280;SDS011;56392;51.082;17.080;2023-01-23T01:37:16;54.73;;;17.40;;
69280;SDS011;56392;51.082;17.080;2023-01-23T01:42:46;64.95;;;18.83;;
69280;SDS011;56392;51.082;17.080;2023-01-23T01:48:11;64.07;;;17.77;;
69280;SDS011;56392;51.082;17.080;2023-01-23T01:53:36;66.83;;;18.50;;
69280;SDS011;56392;51.082;17.080;2023-01-23T01:59:01;62.50;;;18.10;;
69280;SDS011;56392;51.082;17.080;2023-01-23T02:04:25;60.50;;;17.23;;
69280;SDS011;56392;51.082;17.080;2023-01-23T02:09:48;58.23;;;17.47;;
69280;SDS011;56392;51.082;17.080;2023-01-23T02:15:13;62.40;;;18.17;;
69280;SDS011;56392;51.082;17.080;2023-01-23T02:20:36;66.05;;;16.80;;
69280;SDS011;56392;51.082;17.080;2023-01-23T02:26:02;59.10;;;15.52;;
69280;SDS011;56392;51.082;17.080;2023-01-23T02:31:28;66.27;;;17.27;;
69280;SDS011;56392;51.082;17.080;2023-01-23T02:36:51;59.85;;;17.08;;
69280;SDS011;56392;51.082;17.080;2023-01-23T02:42:16;59.58;;;16.88;;
69280;SDS011;56392;51.082;17.080;2023-01-23T03:15:26;59.63;;;15.63;;
69280;SDS011;56392;51.082;17.080;2023-01-23T03:20:49;62.70;;;17.13;;
69280;SDS011;56392;51.082;17.080;2023-01-23T03:26:12;66.13;;;18.05;;
69280;SDS011;56392;51.082;17.080;2023-01-23T03:31:39;62.03;;;18.47;;
69280;SDS011;56392;51.082;17.080;2023-01-23T03:37:02;73.43;;;18.08;;
69280;SDS011;56392;51.082;17.080;2023-01-23T03:42:28;65.85;;;18.05;;
69280;SDS011;56392;51.082;17.080;2023-01-23T03:47:52;64.97;;;17.03;;
69280;SDS011;56392;51.082;17.080;2023-01-23T03:53:15;73.45;;;16.40;;
69280;SDS011;56392;51.082;17.080;2023-01-23T03:58:39;65.22;;;18.50;;
69280;SDS011;56392;51.082;17.080;2023-01-23T04:04:03;66.80;;;17.37;;
69280;SDS011;56392;51.082;17.080;2023-01-23T04:09:26;80.77;;;18.23;;
69280;SDS011;56392;51.082;17.080;2023-01-23T04:14:50;63.70;;;16.75;;
69280;SDS011;56392;51.082;17.080;2023-01-23T04:20:15;62.42;;;18.30;;
69280;SDS011;56392;51.082;17.080;2023-01-23T04:25:38;66.83;;;18.13;;
69280;SDS011;56392;51.082;17.080;2023-01-23T04:31:01;73.72;;;19.45;;
69280;SDS011;56392;51.082;17.080;2023-01-23T04:36:25;70.68;;;19.52;;
69280;SDS011;56392;51.082;17.080;2023-01-23T04:41:51;69.37;;;18.87;;
69280;SDS011;56392;51.082;17.080;2023-01-23T04:47:14;63.95;;;19.35;;
69280;SDS011;56392;51.082;17.080;2023-01-23T04:52:39;74.90;;;18.90;;
69280;SDS011;56392;51.082;17.080;2023-01-23T04:58:02;63.77;;;18.20;;
69280;SDS011;56392;51.082;17.080;2023-01-23T05:03:25;61.40;;;18.63;;
69280;SDS011;56392;51.082;17.080;2023-01-23T05:08:50;66.60;;;19.30;;
69280;SDS011;56392;51.082;17.080;2023-01-23T05:14:13;60.80;;;17.92;;
69280;SDS011;56392;51.082;17.080;2023-01-23T05:19:36;56.83;;;16.17;;
69280;SDS011;56392;51.082;17.080;2023-01-23T05:25:00;67.03;;;18.27;;
69280;SDS011;56392;51.082;17.080;2023-01-23T05:30:23;66.82;;;18.13;;
69280;SDS011;56392;51.082;17.080;2023-01-23T05:35:46;64.70;;;17.77;;
69280;SDS011;56392;51.082;17.080;2023-01-23T05:41:11;71.90;;;18.50;;
69280;SDS011;56392;51.082;17.080;2023-01-23T05:46:34;70.80;;;17.10;;
69280;SDS011;56392;51.082;17.080;2023-01-23T05:51:57;59.97;;;16.80;;
69280;SDS011;56392;51.082;17.080;2023-01-23T05:57:22;67.63;;;18.13;;
69280;SDS011;56392;51.082;17.080;2023-01-23T06:02:45;61.60;;;17.92;;
69280;SDS011;56392;51.082;17.080;2023-01-23T06:08:09;62.10;;;18.55;;
69280;SDS011;56392;51.082;17.080;2023-01-23T06:13:34;61.37;;;17.87;;
69280;SDS011;56392;51.082;17.080;2023-01-23T06:18:57;66.10;;;17.33;;
69280;SDS011;56392;51.082;17.080;2023-01-23T06:24:20;57.55;;;17.27;;
69280;SDS011;56392;51.082;17.080;2023-01-23T06:29:45;58.23;;;17.50;;
69280;SDS011;56392;51.082;17.080;2023-01-23T06:35:08;59.65;;;17.45;;
69280;SDS011;56392;51.082;17.080;2023-01-23T06:40:31;51.70;;;16.15;;
69280;SDS011;56392;51.082;17.080;2023-01-23T06:45:56;52.53;;;17.10;;
69280;SDS011;56392;51.082;17.080;2023-01-23T06:51:19;49.37;;;16.17;;
69280;SDS011;56392;51.082;17.080;2023-01-23T06:56:42;53.08;;;16.80;;
69280;SDS011;56392;51.082;17.080;2023-01-23T07:02:07;51.83;;;16.52;;
69280;SDS011;56392;51.082;17.080;2023-01-23T07:07:31;52.63;;;17.13;;
69280;SDS011;56392;51.082;17.080;2023-01-23T07:12:54;55.60;;;16.95;;
69280;SDS011;56392;51.082;17.080;2023-01-23T07:18:19;52.08;;;15.98;;
69280;SDS011;56392;51.082;17.080;2023-01-23T07:23:42;44.63;;;15.27;;
69280;SDS011;56392;51.082;17.080;2023-01-23T07:29:05;47.17;;;15.82;;
69280;SDS011;56392;51.082;17.080;2023-01-23T07:34:30;50.88;;;15.88;;
69280;SDS011;56392;51.082;17.080;2023-01-23T07:39:54;48.47;;;16.20;;
69280;SDS011;56392;51.082;17.080;2023-01-23T07:45:17;49.10;;;16.63;;
69280;SDS011;56392;51.082;17.080;2023-01-23T07:50:42;43.78;;;15.57;;
69280;SDS011;56392;51.082;17.080;2023-01-23T07:56:06;45.78;;;16.02;;
69280;SDS011;56392;51.082;17.080;2023-01-23T08:01:29;44.63;;;16.10;;
69280;SDS011;56392;51.082;17.080;2023-01-23T08:06:54;45.03;;;16.15;;
69280;SDS011;56392;51.082;17.080;2023-01-23T08:12:17;49.97;;;15.90;;
69280;SDS011;56392;51.082;17.080;2023-01-23T08:17:40;47.53;;;16.17;;
69280;SDS011;56392;51.082;17.080;2023-01-23T08:23:05;51.65;;;17.02;;
69280;SDS011;56392;51.082;17.080;2023-01-23T08:28:28;46.88;;;15.80;;
69280;SDS011;56392;51.082;17.080;2023-01-23T08:33:51;46.57;;;16.53;;
69280;SDS011;56392;51.082;17.080;2023-01-23T08:39:16;48.43;;;17.23;;
69280;SDS011;56392;51.082;17.080;2023-01-23T08:44:40;47.80;;;17.05;;
69280;SDS011;56392;51.082;17.080;2023-01-23T08:50:05;50.33;;;18.20;;
69280;SDS011;56392;51.082;17.080;2023-01-23T08:55:30;47.10;;;15.83;;
69280;SDS011;56392;51.082;17.080;2023-01-23T09:00:56;50.17;;;16.50;;
69280;SDS011;56392;51.082;17.080;2023-01-23T09:06:20;48.90;;;15.45;;
69280;SDS011;56392;51.082;17.080;2023-01-23T09:11:44;45.63;;;15.90;;
69280;SDS011;56392;51.082;17.080;2023-01-23T09:17:08;48.00;;;16.33;;
69280;SDS011;56392;51.082;17.080;2023-01-23T09:22:31;48.53;;;15.82;;
69280;SDS011;56392;51.082;17.080;2023-01-23T09:27:55;51.93;;;17.17;;
69280;SDS011;56392;51.082;17.080;2023-01-23T09:33:19;54.43;;;16.47;;
69280;SDS011;56392;51.082;17.080;2023-01-23T09:38:46;58.80;;;18.85;;
69280;SDS011;56392;51.082;17.080;2023-01-23T09:44:11;50.15;;;16.13;;
69280;SDS011;56392;51.082;17.080;2023-01-23T09:49:42;49.77;;;16.67;;
69280;SDS011;56392;51.082;17.080;2023-01-23T09:55:11;52.20;;;18.08;;
69280;SDS011;56392;51.082;17.080;2023-01-23T10:00:39;54.00;;;18.13;;
69280;SDS011;56392;51.082;17.080;2023-01-23T10:06:14;49.97;;;16.73;;
69280;SDS011;56392;51.082;17.080;2023-01-23T10:11:44;46.47;;;16.35;;
69280;SDS011;56392;51.082;17.080;2023-01-23T10:17:20;54.78;;;17.50;;
69280;SDS011;56392;51.082;17.080;2023-01-23T10:22:48;53.10;;;16.37;;
69280;SDS011;56392;51.082;17.080;2023-01-23T10:28:24;51.30;;;17.37;;
69280;SDS011;56392;51.082;17.080;2023-01-23T10:33:58;53.13;;;16.33;;
69280;SDS011;56392;51.082;17.080;2023-01-23T10:39:28;51.88;;;18.33;;
69280;SDS011;56392;51.082;17.080;2023-01-23T10:44:56;52.87;;;17.63;;
69280;SDS011;56392;51.082;17.080;2023-01-23T10:50:22;53.13;;;18.25;;
69280;SDS011;56392;51.082;17.080;2023-01-23T10:55:57;56.70;;;19.70;;
69280;SDS011;56392;51.082;17.080;2023-01-23T11:01:22;56.70;;;18.03;;
69280;SDS011;56392;51.082;17.080;2023-01-23T11:06:57;52.55;;;17.30;;
69280;SDS011;56392;51.082;17.080;2023-01-23T11:12:28;54.38;;;18.50;;
69280;SDS011;56392;51.082;17.080;2023-01-23T11:17:52;50.37;;;17.13;;
69280;SDS011;56392;51.082;17.080;2023-01-23T11:23:18;52.27;;;18.37;;
69280;SDS011;56392;51.082;17.080;2023-01-23T11:28:45;54.63;;;17.65;;
69280;SDS011;56392;51.082;17.080;2023-01-23T11:34:10;54.38;;;18.42;;
69280;SDS011;56392;51.082;17.080;2023-01-23T11:39:38;54.27;;;19.13;;
69280;SDS011;56392;51.082;17.080;2023-01-23T11:45:10;55.38;;;17.67;;
69280;SDS011;56392;51.082;17.080;2023-01-23T11:50:36;58.20;;;17.95;;
69280;SDS011;56392;51.082;17.080;2023-01-23T11:56:11;53.77;;;18.33;;
69280;SDS011;56392;51.082;17.080;2023-01-23T12:02:22;51.00;;;18.95;;
69280;SDS011;56392;51.082;17.080;2023-01-23T12:08:23;51.83;;;18.02;;
69280;SDS011;56392;51.082;17.080;2023-01-23T12:13:57;52.47;;;18.07;;
69280;SDS011;56392;51.082;17.080;2023-01-23T12:19:28;56.53;;;19.23;;
69280;SDS011;56392;51.082;17.080;2023-01-23T12:25:14;58.97;;;20.77;;
69280;SDS011;56392;51.082;17.080;2023-01-23T12:36:41;53.40;;;18.90;;
69280;SDS011;56392;51.082;17.080;2023-01-23T12:42:17;57.67;;;19.95;;
69280;SDS011;56392;51.082;17.080;2023-01-23T12:47:49;58.22;;;18.58;;
69280;SDS011;56392;51.082;17.080;2023-01-23T12:53:19;55.17;;;17.67;;
69280;SDS011;56392;51.082;17.080;2023-01-23T12:58:45;64.68;;;19.90;;
69280;SDS011;56392;51.082;17.080;2023-01-23T13:04:19;55.92;;;18.88;;
69280;SDS011;56392;51.082;17.080;2023-01-23T13:10:14;63.07;;;19.67;;
69280;SDS011;56392;51.082;17.080;2023-01-23T13:15:59;54.07;;;18.30;;
69280;SDS011;56392;51.082;17.080;2023-01-23T13:21:25;55.08;;;18.38;;
69280;SDS011;56392;51.082;17.080;2023-01-23T13:33:18;64.03;;;19.47;;
69280;SDS011;56392;51.082;17.080;2023-01-23T13:39:19;58.15;;;18.05;;
69280;SDS011;56392;51.082;17.080;2023-01-23T13:50:51;59.97;;;19.00;;
69280;SDS011;56392;51.082;17.080;2023-01-23T13:56:21;54.90;;;17.83;;
69280;SDS011;56392;51.082;17.080;2023-01-23T14:02:06;53.90;;;17.23;;
69280;SDS011;56392;51.082;17.080;2023-01-23T14:08:02;55.03;;;17.33;;
69280;SDS011;56392;51.082;17.080;2023-01-23T14:13:29;56.23;;;18.57;;
69280;SDS011;56392;51.082;17.080;2023-01-23T14:18:53;60.10;;;19.00;;
69280;SDS011;56392;51.082;17.080;2023-01-23T14:24:20;58.47;;;19.35;;
69280;SDS011;56392;51.082;17.080;2023-01-23T14:29:55;60.70;;;18.97;;
69280;SDS011;56392;51.082;17.080;2023-01-23T14:35:22;61.33;;;19.85;;
69280;SDS011;56392;51.082;17.080;2023-01-23T14:40:46;63.10;;;19.83;;
69280;SDS011;56392;51.082;17.080;2023-01-23T14:46:14;59.83;;;19.97;;
69280;SDS011;56392;51.082;17.080;2023-01-23T14:51:40;57.45;;;19.67;;
69280;SDS011;56392;51.082;17.080;2023-01-23T14:57:16;61.45;;;19.95;;
69280;SDS011;56392;51.082;17.080;2023-01-23T15:02:46;61.20;;;21.07;;
69280;SDS011;56392;51.082;17.080;2023-01-23T15:08:16;62.53;;;20.33;;
69280;SDS011;56392;51.082;17.080;2023-01-23T15:13:43;67.50;;;20.58;;
69280;SDS011;56392;51.082;17.080;2023-01-23T15:19:17;64.00;;;20.13;;
69280;SDS011;56392;51.082;17.080;2023-01-23T15:24:42;68.77;;;21.17;;
69280;SDS011;56392;51.082;17.080;2023-01-23T15:36:22;73.13;;;21.33;;
69280;SDS011;56392;51.082;17.080;2023-01-23T15:41:48;66.17;;;21.23;;
69280;SDS011;56392;51.082;17.080;2023-01-23T15:47:13;69.30;;;21.63;;
69280;SDS011;56392;51.082;17.080;2023-01-23T15:52:46;70.05;;;21.42;;
69280;SDS011;56392;51.082;17.080;2023-01-23T15:58:10;77.27;;;22.73;;
69280;SDS011;56392;51.082;17.080;2023-01-23T16:03:35;71.33;;;22.70;;
69280;SDS011;56392;51.082;17.080;2023-01-23T16:09:00;76.88;;;23.52;;
69280;SDS011;56392;51.082;17.080;2023-01-23T16:14:24;81.72;;;23.55;;
69280;SDS011;56392;51.082;17.080;2023-01-23T16:19:47;79.47;;;22.43;;
69280;SDS011;56392;51.082;17.080;2023-01-23T16:25:15;79.30;;;25.23;;
69280;SDS011;56392;51.082;17.080;2023-01-23T16:30:41;80.65;;;23.85;;
69280;SDS011;56392;51.082;17.080;2023-01-23T16:36:04;77.03;;;22.90;;
69280;SDS011;56392;51.082;17.080;2023-01-23T16:41:30;79.72;;;23.92;;
69280;SDS011;56392;51.082;17.080;2023-01-23T16:46:53;79.00;;;22.92;;
69280;SDS011;56392;51.082;17.080;2023-01-23T16:52:16;75.67;;;23.43;;
69280;SDS011;56392;51.082;17.080;2023-01-23T16:57:41;79.87;;;23.77;;
69280;SDS011;56392;51.082;17.080;2023-01-23T17:03:06;82.63;;;24.23;;
69280;SDS011;56392;51.082;17.080;2023-01-23T17:08:31;78.43;;;24.15;;
69280;SDS011;56392;51.082;17.080;2023-01-23T17:13:56;69.97;;;22.03;;
69280;SDS011;56392;51.082;17.080;2023-01-23T17:19:22;75.40;;;23.25;;
69280;SDS011;56392;51.082;17.080;2023-01-23T17:24:49;73.35;;;23.13;;
69280;SDS011;56392;51.082;17.080;2023-01-23T17:30:15;68.23;;;23.83;;
69280;SDS011;56392;51.082;17.080;2023-01-23T17:35:39;75.32;;;22.55;;
69280;SDS011;56392;51.082;17.080;2023-01-23T17:41:04;78.43;;;23.42;;
69280;SDS011;56392;51.082;17.080;2023-01-23T17:46:30;70.93;;;22.77;;
69280;SDS011;56392;51.082;17.080;2023-01-23T17:51:57;78.83;;;23.40;;
69280;SDS011;56392;51.082;17.080;2023-01-23T17:57:21;74.70;;;23.33;;
69280;SDS011;56392;51.082;17.080;2023-01-23T18:02:46;74.03;;;23.13;;
69280;SDS011;56392;51.082;17.080;2023-01-23T18:08:13;68.37;;;22.27;;
69280;SDS011;56392;51.082;17.080;2023-01-23T18:13:39;71.95;;;23.02;;
69280;SDS011;56392;51.082;17.080;2023-01-23T18:19:14;74.85;;;23.17;;
69280;SDS011;56392;51.082;17.080;2023-01-23T18:24:39;65.40;;;20.70;;
69280;SDS011;56392;51.082;17.080;2023-01-23T18:30:08;69.97;;;22.25;;
69280;SDS011;56392;51.082;17.080;2023-01-23T18:36:08;69.22;;;22.60;;
69280;SDS011;56392;51.082;17.080;2023-01-23T18:42:01;68.00;;;21.87;;
69280;SDS011;56392;51.082;17.080;2023-01-23T18:47:36;74.93;;;22.53;;
69280;SDS011;56392;51.082;17.080;2023-01-23T18:53:05;67.43;;;22.42;;
69280;SDS011;56392;51.082;17.080;2023-01-23T18:58:39;73.00;;;22.67;;
69280;SDS011;56392;51.082;17.080;2023-01-23T19:04:12;68.97;;;20.97;;
69280;SDS011;56392;51.082;17.080;2023-01-23T19:09:38;74.75;;;21.92;;
69280;SDS011;56392;51.082;17.080;2023-01-23T19:15:10;71.38;;;23.48;;
69280;SDS011;56392;51.082;17.080;2023-01-23T19:20:45;68.97;;;22.67;;
69280;SDS011;56392;51.082;17.080;2023-01-23T19:26:12;68.88;;;22.38;;
69280;SDS011;56392;51.082;17.080;2023-01-23T19:31:37;71.85;;;22.77;;
69280;SDS011;56392;51.082;17.080;2023-01-23T19:37:01;72.30;;;22.03;;
69280;SDS011;56392;51.082;17.080;2023-01-23T19:42:25;71.70;;;21.97;;
69280;SDS011;56392;51.082;17.080;2023-01-23T19:47:49;73.00;;;21.90;;
69280;SDS011;56392;51.082;17.080;2023-01-23T19:53:13;69.18;;;22.05;;
69280;SDS011;56392;51.082;17.080;2023-01-23T19:58:40;69.80;;;19.97;;
69280;SDS011;56392;51.082;17.080;2023-01-23T20:04:04;72.82;;;21.95;;
69280;SDS011;56392;51.082;17.080;2023-01-23T20:09:31;70.05;;;21.90;;
69280;SDS011;56392;51.082;17.080;2023-01-23T20:14:56;65.37;;;21.17;;
69280;SDS011;56392;51.082;17.080;2023-01-23T20:20:19;71.65;;;22.58;;
69280;SDS011;56392;51.082;17.080;2023-01-23T20:25:43;66.72;;;21.05;;
69280;SDS011;56392;51.082;17.080;2023-01-23T20:31:08;68.17;;;22.83;;
69280;SDS011;56392;51.082;17.080;2023-01-23T20:36:39;65.17;;;20.57;;
69280;SDS011;56392;51.082;17.080;2023-01-23T20:42:02;65.13;;;20.40;;
69280;SDS011;56392;51.082;17.080;2023-01-23T20:47:30;61.00;;;21.00;;
69280;SDS011;56392;51.082;17.080;2023-01-23T20:53:01;63.50;;;20.57;;
69280;SDS011;56392;51.082;17.080;2023-01-23T20:58:42;60.47;;;21.00;;
69280;SDS011;56392;51.082;17.080;2023-01-23T21:04:26;55.50;;;19.23;;
69280;SDS011;56392;51.082;17.080;2023-01-23T21:09:51;64.47;;;20.30;;
69280;SDS011;56392;51.082;17.080;2023-01-23T21:15:14;63.40;;;20.52;;
69280;SDS011;56392;51.082;17.080;2023-01-23T21:20:39;62.33;;;21.02;;
69280;SDS011;56392;51.082;17.080;2023-01-23T21:26:03;68.10;;;21.37;;
69280;SDS011;56392;51.082;17.080;2023-01-23T21:31:26;61.47;;;19.50;;
69280;SDS011;56392;51.082;17.080;2023-01-23T21:36:54;57.78;;;20.38;;
69280;SDS011;56392;51.082;17.080;2023-01-23T21:42:17;58.15;;;20.30;;
69280;SDS011;56392;51.082;17.080;2023-01-23T21:47:40;61.93;;;20.47;;
69280;SDS011;56392;51.082;17.080;2023-01-23T21:53:05;59.28;;;19.67;;
69280;SDS011;56392;51.082;17.080;2023-01-23T21:58:28;63.95;;;20.75;;
69280;SDS011;56392;51.082;17.080;2023-01-23T22:03:52;60.93;;;19.83;;
69280;SDS011;56392;51.082;17.080;2023-01-23T22:09:17;55.25;;;20.60;;
69280;SDS011;56392;51.082;17.080;2023-01-23T22:14:42;62.58;;;20.35;;
69280;SDS011;56392;51.082;17.080;2023-01-23T22:20:05;61.67;;;19.40;;
69280;SDS011;56392;51.082;17.080;2023-01-23T22:25:31;58.37;;;20.07;;
69280;SDS011;56392;51.082;17.080;2023-01-23T22:30:54;59.80;;;19.75;;
69280;SDS011;56392;51.082;17.080;2023-01-23T22:36:18;52.97;;;20.58;;
69280;SDS011;56392;51.082;17.080;2023-01-23T22:41:44;58.37;;;19.03;;
69280;SDS011;56392;51.082;17.080;2023-01-23T22:47:07;58.10;;;19.65;;
69280;SDS011;56392;51.082;17.080;2023-01-23T22:52:31;65.70;;;20.30;;
69280;SDS011;56392;51.082;17.080;2023-01-23T22:57:56;63.40;;;20.23;;
69280;SDS011;56392;51.082;17.080;2023-01-23T23:03:19;62.38;;;20.50;;
69280;SDS011;56392;51.082;17.080;2023-01-23T23:08:43;62.58;;;20.10;;
69280;SDS011;56392;51.082;17.080;2023-01-23T23:14:09;61.97;;;21.17;;
69280;SDS011;56392;51.082;17.080;2023-01-23T23:19:32;62.53;;;21.07;;
69280;SDS011;56392;51.082;17.080;2023-01-23T23:24:55;61.70;;;20.50;;
69280;SDS011;56392;51.082;17.080;2023-01-23T23:30:20;65.93;;;20.70;;
69280;SDS011;56392;51.082;17.080;2023-01-23T23:35:43;55.87;;;18.70;;
69280;SDS011;56392;51.082;17.080;2023-01-23T23:41:07;59.05;;;21.63;;
69280;SDS011;56392;51.082;17.080;2023-01-23T23:46:34;62.78;;;20.88;;
69280;SDS011;56392;51.082;17.080;2023-01-23T23:51:57;65.10;;;21.10;;
69280;SDS011;56392;51.082;17.080;2023-01-23T23:57:21;64.68;;;21.30;;
